createdAt,value
2023-05-21T00:01:16.038Z,78.31
2023-05-21T00:03:46.129Z,77.71
2023-05-21T00:06:15.541Z,79.03
2023-05-21T00:08:44.536Z,79.06
2023-05-21T00:11:12.070Z,78.41
2023-05-21T00:13:39.606Z,77.52
2023-05-21T00:16:07.964Z,78.03
2023-05-21T00:18:35.588Z,79.12
2023-05-21T00:21:03.107Z,78.96
2023-05-21T00:23:32.598Z,78.93
2023-05-21T00:26:01.498Z,78.15
2023-05-21T00:28:29.068Z,78.93
2023-05-21T00:30:56.585Z,78.96
2023-05-21T00:33:26.431Z,78.71
2023-05-21T00:35:54.065Z,79.45
2023-05-21T00:38:22.130Z,79.44
2023-05-21T00:40:49.896Z,80.43
2023-05-21T00:43:18.850Z,80.47
2023-05-21T00:45:47.438Z,79.73
2023-05-21T00:48:15.960Z,79.71
2023-05-21T00:50:44.860Z,79.85
2023-05-21T00:53:12.537Z,79.63
2023-05-21T00:55:40.600Z,80.02
2023-05-21T00:58:08.965Z,80.55
2023-05-21T01:00:40.470Z,80.77
2023-05-21T01:03:08.345Z,80.30
2023-05-21T01:05:36.905Z,80.15
2023-05-21T01:08:05.023Z,79.76
2023-05-21T01:10:32.611Z,80.19
2023-05-21T01:13:00.702Z,80.15
2023-05-21T01:15:28.391Z,79.86
2023-05-21T01:17:57.418Z,80.00
2023-05-21T01:20:25.422Z,80.36
2023-05-21T01:22:55.253Z,80.34
2023-05-21T01:25:25.644Z,80.69
2023-05-21T01:27:53.474Z,81.03
2023-05-21T01:30:22.213Z,80.88
2023-05-21T01:32:56.667Z,80.65
2023-05-21T01:35:27.876Z,80.84
2023-05-21T01:38:00.974Z,80.75
2023-05-21T01:40:32.612Z,80.66
2023-05-21T01:43:00.872Z,80.81
2023-05-21T01:45:31.397Z,80.45
2023-05-21T01:47:59.301Z,80.55
2023-05-21T01:50:27.496Z,80.02
2023-05-21T01:52:58.567Z,80.42
2023-05-21T01:55:26.172Z,80.75
2023-05-21T01:57:54.389Z,80.49
2023-05-21T02:00:22.287Z,80.56
2023-05-21T02:02:50.282Z,80.91
2023-05-21T02:05:18.213Z,80.85
2023-05-21T02:07:46.257Z,80.80
2023-05-21T02:10:15.920Z,81.22
2023-05-21T02:12:44.103Z,80.93
2023-05-21T02:15:11.684Z,81.73
2023-05-21T02:17:39.403Z,81.40
2023-05-21T02:20:12.190Z,81.65
2023-05-21T02:22:40.489Z,81.19
2023-05-21T02:25:09.750Z,81.03
2023-05-21T02:27:39.580Z,81.00
2023-05-21T02:30:09.090Z,80.86
2023-05-21T02:32:37.054Z,80.93
2023-05-21T02:35:05.486Z,80.75
2023-05-21T02:37:34.248Z,80.93
2023-05-21T02:40:03.600Z,81.01
2023-05-21T02:42:31.316Z,81.54
2023-05-21T02:45:00.418Z,81.07
2023-05-21T02:47:28.024Z,81.04
2023-05-21T02:49:55.822Z,81.37
2023-05-21T02:52:24.489Z,80.92
2023-05-21T02:54:52.823Z,81.26
2023-05-21T02:57:20.641Z,81.13
2023-05-21T02:59:48.234Z,81.05
2023-05-21T03:02:17.250Z,81.44
2023-05-21T03:04:46.856Z,81.40
2023-05-21T03:07:15.179Z,80.85
2023-05-21T03:09:43.234Z,80.29
2023-05-21T03:12:11.338Z,80.18
2023-05-21T03:14:39.143Z,80.19
2023-05-21T03:17:07.710Z,80.26
2023-05-21T03:19:36.804Z,80.25
2023-05-21T03:22:05.969Z,80.94
2023-05-21T03:24:38.118Z,80.23
2023-05-21T03:27:07.249Z,80.28
2023-05-21T03:29:36.139Z,79.97
2023-05-21T03:32:04.301Z,80.09
2023-05-21T03:34:35.592Z,79.92
2023-05-21T03:37:05.622Z,80.18
2023-05-21T03:39:34.441Z,80.83
2023-05-21T03:42:02.090Z,80.96
2023-05-21T03:44:38.416Z,80.52
2023-05-21T03:47:27.093Z,79.94
2023-05-21T03:49:54.959Z,80.29
2023-05-21T03:52:23.958Z,79.75
2023-05-21T03:54:51.822Z,79.67
2023-05-21T03:57:19.696Z,79.99
2023-05-21T03:59:48.612Z,80.47
2023-05-21T04:02:16.644Z,80.67
2023-05-21T04:04:45.381Z,79.74
2023-05-21T04:07:15.327Z,79.74
2023-05-21T04:09:44.228Z,79.90
2023-05-21T04:12:11.818Z,79.64
2023-05-21T04:14:39.393Z,79.51
2023-05-21T04:17:07.017Z,79.90
2023-05-21T04:19:34.774Z,80.17
2023-05-21T04:22:04.390Z,80.36
2023-05-21T04:24:32.369Z,80.02
2023-05-21T04:27:11.235Z,80.98
2023-05-21T04:29:42.762Z,80.92
2023-05-21T04:32:15.005Z,81.12
2023-05-21T04:34:42.942Z,80.13
2023-05-21T04:37:10.615Z,79.63
2023-05-21T04:39:38.394Z,79.27
2023-05-21T04:42:06.923Z,78.71
2023-05-21T04:44:35.813Z,79.17
2023-05-21T04:47:04.637Z,79.25
2023-05-21T04:49:34.861Z,78.78
2023-05-21T04:52:02.621Z,79.53
2023-05-21T04:54:30.177Z,79.83
2023-05-21T04:56:58.135Z,79.22
2023-05-21T04:59:25.665Z,80.03
2023-05-21T05:01:54.826Z,80.04
2023-05-21T05:04:22.934Z,80.61
2023-05-21T05:06:51.854Z,80.89
2023-05-21T05:09:21.493Z,80.70
2023-05-21T05:11:49.017Z,80.74
2023-05-21T05:14:16.608Z,80.76
2023-05-21T05:16:48.106Z,80.50
2023-05-21T05:19:18.200Z,80.62
2023-05-21T05:21:45.917Z,80.38
2023-05-21T05:24:13.555Z,79.74
2023-05-21T05:26:41.229Z,79.06
2023-05-21T05:29:08.788Z,78.97
2023-05-21T05:31:37.338Z,78.44
2023-05-21T05:34:05.318Z,78.38
2023-05-21T05:36:34.626Z,78.05
2023-05-21T05:39:03.834Z,78.04
2023-05-21T05:41:31.495Z,78.05
2023-05-21T05:43:59.044Z,78.17
2023-05-21T05:46:30.337Z,78.06
2023-05-21T05:48:58.479Z,77.60
2023-05-21T05:51:26.014Z,77.65
2023-05-21T05:53:54.897Z,77.39
2023-05-21T05:56:22.893Z,77.69
2023-05-21T05:58:50.596Z,77.54
2023-05-21T06:01:19.537Z,77.64
2023-05-21T06:03:47.362Z,77.32
2023-05-21T06:06:17.977Z,76.98
2023-05-21T06:08:46.276Z,77.00
2023-05-21T06:11:17.191Z,76.76
2023-05-21T06:13:45.161Z,76.49
2023-05-21T06:16:18.023Z,76.25
2023-05-21T06:18:46.006Z,76.26
2023-05-21T06:21:13.701Z,76.01
2023-05-21T06:23:41.696Z,76.14
2023-05-21T06:26:10.106Z,75.28
2023-05-21T06:28:39.084Z,75.04
2023-05-21T06:31:07.436Z,74.59
2023-05-21T06:33:37.133Z,74.90
2023-05-21T06:36:05.100Z,74.38
2023-05-21T06:38:33.074Z,74.16
2023-05-21T06:41:01.975Z,74.33
2023-05-21T06:43:47.933Z,74.20
2023-05-21T06:46:35.537Z,74.28
2023-05-21T06:49:07.172Z,74.00
2023-05-21T06:51:35.237Z,73.69
2023-05-21T06:54:05.038Z,73.40
2023-05-21T06:56:34.494Z,71.97
2023-05-21T06:59:03.413Z,72.04
2023-05-21T07:01:32.361Z,71.15
2023-05-21T07:04:00.623Z,69.93
2023-05-21T07:06:28.184Z,68.72
2023-05-21T07:08:56.672Z,69.13
2023-05-21T07:11:28.638Z,68.35
2023-05-21T07:14:00.324Z,67.63
2023-05-21T07:16:31.441Z,67.05
2023-05-21T07:18:59.804Z,66.01
2023-05-21T07:21:27.606Z,66.09
2023-05-21T07:23:56.640Z,66.15
2023-05-21T07:26:26.023Z,65.08
2023-05-21T07:28:53.833Z,63.14
2023-05-21T07:31:21.447Z,62.92
2023-05-21T07:33:53.056Z,62.91
2023-05-21T07:36:24.790Z,59.48
2023-05-21T07:38:52.963Z,59.43
2023-05-21T07:41:21.991Z,54.58
2023-05-21T07:43:50.994Z,55.49
2023-05-21T07:46:18.830Z,52.19
2023-05-21T07:48:49.974Z,50.75
2023-05-21T07:51:18.897Z,50.09
2023-05-21T07:53:46.755Z,49.81
2023-05-21T07:56:16.631Z,49.17
2023-05-21T07:58:45.821Z,46.36
2023-05-21T08:01:14.861Z,47.03
2023-05-21T08:03:43.319Z,46.40
2023-05-21T08:06:11.087Z,46.54
2023-05-21T08:08:40.080Z,44.86
2023-05-21T08:11:07.606Z,45.69
2023-05-21T08:13:35.909Z,44.98
2023-05-21T08:16:05.940Z,44.73
2023-05-21T08:18:33.697Z,44.92
2023-05-21T08:21:01.885Z,44.29
2023-05-21T08:23:29.905Z,43.75
2023-05-21T08:26:01.584Z,43.65
2023-05-21T08:28:31.321Z,43.55
2023-05-21T08:31:01.319Z,43.68
2023-05-21T08:33:29.100Z,43.56
2023-05-21T08:35:56.682Z,43.90
2023-05-21T08:38:31.682Z,43.62
2023-05-21T08:41:10.168Z,43.31
2023-05-21T08:43:38.846Z,43.52
2023-05-21T08:46:07.870Z,42.66
2023-05-21T08:48:38.362Z,42.61
2023-05-21T08:51:07.144Z,43.12
2023-05-21T08:53:40.472Z,42.95
2023-05-21T08:56:13.096Z,42.69
2023-05-21T08:58:49.924Z,42.53
2023-05-21T09:01:22.388Z,42.63
2023-05-21T09:04:04.944Z,42.12
2023-05-21T09:06:36.447Z,42.45
2023-05-21T09:09:07.834Z,41.14
2023-05-21T09:11:46.340Z,41.02
2023-05-21T09:14:14.680Z,41.63
2023-05-21T09:17:03.454Z,39.84
2023-05-21T09:19:32.365Z,40.18
2023-05-21T09:22:02.822Z,38.49
2023-05-21T09:24:33.744Z,38.32
2023-05-21T09:27:07.522Z,38.93
2023-05-21T09:29:35.296Z,38.20
2023-05-21T09:32:07.414Z,37.66
2023-05-21T09:34:37.251Z,38.04
2023-05-21T09:37:16.510Z,36.72
2023-05-21T09:39:54.112Z,36.66
2023-05-21T09:42:23.305Z,37.29
2023-05-21T09:44:51.406Z,37.21
2023-05-21T09:47:22.326Z,37.56
2023-05-21T09:49:50.189Z,37.10
2023-05-21T09:52:24.966Z,36.98
2023-05-21T09:54:53.100Z,37.54
2023-05-21T09:57:26.196Z,36.14
2023-05-21T09:59:54.055Z,36.44
2023-05-21T10:02:23.096Z,36.52
2023-05-21T10:04:52.845Z,36.60
2023-05-21T10:07:26.135Z,36.45
2023-05-21T10:09:56.037Z,36.41
2023-05-21T10:12:24.257Z,35.85
2023-05-21T10:15:00.301Z,36.92
2023-05-21T10:17:28.717Z,35.32
2023-05-21T10:19:57.944Z,35.04
2023-05-21T10:22:26.027Z,35.22
2023-05-21T10:24:53.924Z,35.60
2023-05-21T10:27:22.618Z,34.83
2023-05-21T10:29:50.995Z,34.54
2023-05-21T10:32:22.500Z,34.40
2023-05-21T10:34:50.702Z,34.49
2023-05-21T10:37:18.568Z,34.98
2023-05-21T10:39:46.872Z,34.12
2023-05-21T10:42:21.106Z,33.93
2023-05-21T10:45:02.833Z,32.56
2023-05-21T10:47:45.116Z,32.58
2023-05-21T10:50:27.988Z,32.79
2023-05-21T10:53:04.818Z,32.62
2023-05-21T10:55:43.912Z,32.63
2023-05-21T10:58:36.206Z,31.86
2023-05-21T11:01:03.937Z,30.17
2023-05-21T11:03:35.029Z,29.63
2023-05-21T11:06:06.429Z,31.02
2023-05-21T11:08:36.118Z,31.55
2023-05-21T11:11:04.829Z,31.59
2023-05-21T11:13:48.699Z,31.50
2023-05-21T11:16:16.446Z,31.23
2023-05-21T11:19:04.269Z,31.47
2023-05-21T11:21:32.608Z,30.92
2023-05-21T11:24:03.921Z,30.88
2023-05-21T11:27:02.220Z,29.81
2023-05-21T11:29:34.361Z,27.97
2023-05-21T11:32:02.821Z,29.35
2023-05-21T11:34:39.405Z,30.22
2023-05-21T11:37:28.853Z,29.41
2023-05-21T11:39:57.249Z,29.35
2023-05-21T11:42:32.008Z,29.13
2023-05-21T11:45:00.394Z,29.02
2023-05-21T11:47:28.953Z,29.04
2023-05-21T11:49:59.859Z,28.66
2023-05-21T11:52:29.450Z,28.44
2023-05-21T11:54:58.276Z,28.17
2023-05-21T11:57:30.859Z,27.78
2023-05-21T11:59:59.563Z,27.79
2023-05-21T12:02:29.072Z,28.52
2023-05-21T12:05:00.541Z,28.64
2023-05-21T12:07:29.953Z,28.81
2023-05-21T12:09:57.810Z,28.97
2023-05-21T12:12:30.795Z,28.76
2023-05-21T12:15:03.929Z,28.89
2023-05-21T12:17:32.080Z,29.61
2023-05-21T12:20:02.095Z,29.24
2023-05-21T12:22:29.890Z,29.51
2023-05-21T12:25:00.964Z,29.26
2023-05-21T12:27:28.684Z,28.40
2023-05-21T12:29:56.555Z,28.82
2023-05-21T12:32:24.073Z,28.72
2023-05-21T12:34:54.497Z,29.29
2023-05-21T12:37:25.323Z,28.75
2023-05-21T12:39:54.239Z,29.79
2023-05-21T12:42:26.095Z,29.52
2023-05-21T12:44:54.337Z,29.94
2023-05-21T12:47:24.766Z,30.04
2023-05-21T12:49:55.604Z,31.06
2023-05-21T12:52:25.435Z,31.44
2023-05-21T12:54:54.270Z,31.26
2023-05-21T12:57:24.176Z,31.74
2023-05-21T12:59:52.851Z,30.92
2023-05-21T13:02:22.470Z,30.78
2023-05-21T13:04:54.852Z,31.39
2023-05-21T13:07:23.851Z,30.99
2023-05-21T13:09:53.230Z,31.32
2023-05-21T13:12:22.370Z,31.23
2023-05-21T13:14:50.841Z,31.16
2023-05-21T13:17:18.520Z,31.40
2023-05-21T13:20:06.643Z,31.31
2023-05-21T13:22:36.380Z,30.98
2023-05-21T13:25:04.145Z,31.21
2023-05-21T13:27:31.670Z,31.07
2023-05-21T13:29:59.336Z,30.92
2023-05-21T13:32:27.007Z,31.22
2023-05-21T13:34:54.649Z,31.50
2023-05-21T13:37:22.182Z,31.90
2023-05-21T13:39:51.050Z,31.40
2023-05-21T13:42:19.606Z,31.61
2023-05-21T13:44:47.526Z,30.50
2023-05-21T13:47:15.105Z,30.92
2023-05-21T13:49:43.297Z,31.37
2023-05-21T13:52:11.076Z,31.45
2023-05-21T13:54:38.620Z,31.29
2023-05-21T13:57:07.609Z,31.35
2023-05-21T13:59:36.228Z,32.11
2023-05-21T14:02:03.976Z,32.24
2023-05-21T14:04:31.589Z,32.68
2023-05-21T14:06:59.166Z,31.51
2023-05-21T14:09:27.230Z,31.59
2023-05-21T14:11:55.123Z,31.69
2023-05-21T14:14:24.365Z,31.38
2023-05-21T14:16:52.669Z,31.91
2023-05-21T14:19:20.440Z,31.66
2023-05-21T14:21:48.044Z,32.25
2023-05-21T14:24:15.694Z,31.46
2023-05-21T14:26:43.270Z,32.40
2023-05-21T14:29:10.988Z,32.67
2023-05-21T14:31:40.173Z,32.90
2023-05-21T14:34:08.789Z,33.12
2023-05-21T14:36:36.359Z,33.23
2023-05-21T14:39:04.261Z,33.00
2023-05-21T14:41:31.945Z,33.91
2023-05-21T14:43:59.533Z,34.20
2023-05-21T14:46:27.128Z,33.37
2023-05-21T14:48:59.417Z,33.26
2023-05-21T14:51:27.089Z,34.28
2023-05-21T14:53:55.734Z,34.23
2023-05-21T14:56:26.196Z,34.23
2023-05-21T14:58:53.761Z,34.28
2023-05-21T15:01:21.565Z,34.15
2023-05-21T15:03:49.402Z,34.17
2023-05-21T15:06:18.459Z,34.06
2023-05-21T15:08:46.019Z,33.96
2023-05-21T15:11:13.631Z,33.84
2023-05-21T15:13:41.226Z,33.91
2023-05-21T15:16:08.858Z,34.16
2023-05-21T15:18:36.390Z,34.25
2023-05-21T15:21:03.989Z,34.84
2023-05-21T15:23:32.841Z,34.74
2023-05-21T15:26:00.411Z,34.34
2023-05-21T15:28:29.224Z,35.31
2023-05-21T15:30:56.860Z,35.36
2023-05-21T15:33:24.615Z,35.08
2023-05-21T15:35:52.227Z,35.24
2023-05-21T15:38:19.810Z,35.56
2023-05-21T15:40:48.748Z,35.64
2023-05-21T15:43:16.302Z,35.86
2023-05-21T15:45:43.863Z,35.58
2023-05-21T15:48:12.397Z,35.61
2023-05-21T15:50:40.421Z,35.04
2023-05-21T15:53:08.011Z,35.46
2023-05-21T15:55:35.831Z,35.53
2023-05-21T15:58:05.235Z,35.83
2023-05-21T16:00:32.857Z,35.05
2023-05-21T16:03:00.412Z,35.44
2023-05-21T16:05:28.057Z,35.35
2023-05-21T16:07:55.623Z,35.55
2023-05-21T16:10:23.676Z,35.34
2023-05-21T16:12:51.246Z,34.90
2023-05-21T16:15:20.100Z,35.31
2023-05-21T16:17:48.043Z,34.88
2023-05-21T16:20:16.129Z,35.13
2023-05-21T16:22:43.760Z,35.24
2023-05-21T16:25:11.263Z,35.30
2023-05-21T16:27:38.836Z,35.36
2023-05-21T16:30:07.688Z,35.00
2023-05-21T16:32:36.712Z,35.07
2023-05-21T16:35:04.914Z,35.74
2023-05-21T16:37:32.508Z,35.91
2023-05-21T16:40:00.063Z,35.58
2023-05-21T16:42:27.667Z,35.53
2023-05-21T16:44:55.214Z,35.83
2023-05-21T16:47:22.820Z,36.62
2023-05-21T16:49:52.546Z,36.88
2023-05-21T16:52:20.084Z,36.70
2023-05-21T16:54:48.896Z,37.51
2023-05-21T16:57:16.798Z,37.50
2023-05-21T16:59:44.608Z,37.50
2023-05-21T17:02:13.136Z,37.47
2023-05-21T17:04:40.697Z,38.03
2023-05-21T17:07:09.530Z,38.24
2023-05-21T17:09:37.099Z,38.28
2023-05-21T17:12:05.265Z,38.07
2023-05-21T17:14:34.889Z,38.43
2023-05-21T17:17:03.390Z,38.06
2023-05-21T17:19:31.132Z,38.30
2023-05-21T17:21:58.941Z,38.97
2023-05-21T17:24:27.824Z,39.18
2023-05-21T17:26:55.639Z,39.08
2023-05-21T17:29:23.219Z,39.91
2023-05-21T17:31:51.000Z,39.57
2023-05-21T17:34:18.978Z,39.90
2023-05-21T17:36:46.523Z,40.42
2023-05-21T17:39:14.093Z,39.90
2023-05-21T17:41:42.974Z,40.22
2023-05-21T17:44:12.727Z,40.87
2023-05-21T17:46:40.477Z,40.67
2023-05-21T17:49:08.570Z,40.79
2023-05-21T17:51:36.930Z,41.08
2023-05-21T17:54:04.754Z,41.22
2023-05-21T17:56:34.286Z,41.66
2023-05-21T17:59:03.145Z,41.51
2023-05-21T18:01:30.885Z,42.16
2023-05-21T18:03:58.550Z,41.60
2023-05-21T18:06:27.798Z,42.42
2023-05-21T18:08:55.694Z,42.58
2023-05-21T18:11:24.172Z,42.00
2023-05-21T18:13:51.815Z,42.20
2023-05-21T18:16:20.854Z,42.24
2023-05-21T18:18:48.487Z,42.07
2023-05-21T18:21:16.141Z,42.36
2023-05-21T18:23:44.485Z,42.33
2023-05-21T18:26:12.613Z,43.10
2023-05-21T18:28:40.663Z,42.94
2023-05-21T18:31:08.234Z,43.26
2023-05-21T18:33:38.352Z,43.16
2023-05-21T18:36:06.365Z,42.97
2023-05-21T18:38:36.557Z,43.43
2023-05-21T18:41:05.050Z,43.69
2023-05-21T18:43:32.661Z,43.94
2023-05-21T18:46:00.615Z,44.10
2023-05-21T18:48:28.187Z,44.39
2023-05-21T18:50:57.081Z,45.00
2023-05-21T18:53:24.631Z,45.58
2023-05-21T18:55:52.210Z,45.46
2023-05-21T18:58:19.900Z,45.89
2023-05-21T19:00:47.404Z,46.58
2023-05-21T19:03:17.238Z,46.76
2023-05-21T19:05:45.195Z,45.97
2023-05-21T19:08:15.943Z,46.54
2023-05-21T19:10:43.732Z,46.76
2023-05-21T19:13:11.421Z,47.21
2023-05-21T19:15:39.818Z,46.65
2023-05-21T19:18:08.203Z,47.01
2023-05-21T19:20:36.749Z,47.02
2023-05-21T19:23:04.866Z,47.21
2023-05-21T19:25:33.861Z,47.54
2023-05-21T19:28:01.688Z,47.43
2023-05-21T19:30:29.275Z,47.49
2023-05-21T19:32:56.829Z,47.63
2023-05-21T19:35:24.463Z,47.54
2023-05-21T19:37:54.445Z,47.76
2023-05-21T19:40:23.124Z,48.32
2023-05-21T19:42:52.040Z,48.44
2023-05-21T19:45:21.310Z,48.50
2023-05-21T19:47:49.113Z,48.66
2023-05-21T19:50:17.933Z,48.87
2023-05-21T19:52:45.594Z,48.53
2023-05-21T19:55:14.006Z,49.42
2023-05-21T19:57:42.760Z,48.92
2023-05-21T20:00:13.833Z,49.10
2023-05-21T20:02:41.700Z,49.35
2023-05-21T20:05:10.427Z,49.20
2023-05-21T20:07:38.036Z,49.37
2023-05-21T20:10:06.376Z,49.51
2023-05-21T20:12:34.032Z,49.41
2023-05-21T20:15:01.706Z,49.89
2023-05-21T20:17:33.857Z,49.80
2023-05-21T20:20:07.401Z,49.81
2023-05-21T20:22:34.965Z,50.04
2023-05-21T20:25:03.863Z,50.15
2023-05-21T20:27:32.040Z,50.43
2023-05-21T20:29:59.634Z,50.23
2023-05-21T20:32:27.298Z,49.88
2023-05-21T20:35:03.412Z,50.54
2023-05-21T20:37:33.839Z,50.65
2023-05-21T20:40:01.464Z,50.67
2023-05-21T20:42:33.963Z,50.83
2023-05-21T20:45:01.820Z,50.86
2023-05-21T20:47:30.290Z,50.95
2023-05-21T20:50:00.473Z,51.08
2023-05-21T20:52:28.080Z,51.23
2023-05-21T20:54:56.550Z,51.67
2023-05-21T20:57:26.185Z,51.76
2023-05-21T20:59:53.884Z,51.52
2023-05-21T21:02:22.833Z,51.70
2023-05-21T21:04:51.242Z,51.63
2023-05-21T21:07:20.575Z,51.57
2023-05-21T21:09:49.442Z,52.57
2023-05-21T21:14:47.459Z,53.82
2023-05-21T21:17:14.989Z,55.00
2023-05-21T21:19:42.601Z,56.17
2023-05-21T21:22:10.193Z,56.49
2023-05-21T21:24:39.083Z,56.83
2023-05-21T21:27:06.937Z,58.76
2023-05-21T21:29:34.504Z,59.59
2023-05-21T21:32:02.345Z,60.13
2023-05-21T21:34:29.938Z,60.55
2023-05-21T21:36:57.487Z,61.45
2023-05-21T21:39:26.180Z,61.95
2023-05-21T21:41:55.090Z,60.75
2023-05-21T21:44:22.669Z,60.90
2023-05-21T21:46:50.191Z,60.07
2023-05-21T21:49:18.103Z,60.60
2023-05-21T21:51:45.674Z,59.81
2023-05-21T21:54:13.707Z,60.23
2023-05-21T21:56:41.355Z,60.39
2023-05-21T21:59:10.372Z,59.92
2023-05-21T22:01:38.024Z,61.22
2023-05-21T22:04:06.214Z,61.95
2023-05-21T22:06:33.956Z,61.85
2023-05-21T22:09:02.650Z,62.47
2023-05-21T22:11:30.383Z,62.91
2023-05-21T22:14:00.328Z,62.42
2023-05-21T22:16:29.278Z,62.00
2023-05-21T22:18:58.105Z,62.27
2023-05-21T22:21:27.232Z,64.18
2023-05-21T22:23:54.926Z,64.28
2023-05-21T22:26:23.005Z,64.05
2023-05-21T22:28:50.594Z,64.45
2023-05-21T22:31:18.181Z,64.79
2023-05-21T22:33:47.310Z,65.12
2023-05-21T22:36:14.863Z,66.15
2023-05-21T22:38:43.457Z,66.40
2023-05-21T22:41:11.274Z,65.55
2023-05-21T22:43:38.894Z,66.48
2023-05-21T22:46:06.593Z,65.79
2023-05-21T22:48:34.523Z,65.98
2023-05-21T22:51:04.546Z,66.33
2023-05-21T22:53:32.471Z,66.09
2023-05-21T22:56:01.118Z,66.07
2023-05-21T22:58:28.667Z,65.64
2023-05-21T23:00:56.186Z,66.13
2023-05-21T23:03:23.795Z,66.79
2023-05-21T23:05:51.417Z,66.01
2023-05-21T23:08:20.448Z,66.12
2023-05-21T23:10:48.138Z,66.53
2023-05-21T23:13:15.702Z,65.33
2023-05-21T23:15:43.547Z,66.19
2023-05-21T23:18:11.480Z,65.92
2023-05-21T23:20:40.982Z,66.34
2023-05-21T23:23:09.068Z,66.55
2023-05-21T23:25:38.014Z,66.46
2023-05-21T23:28:05.812Z,67.13
2023-05-21T23:30:33.362Z,67.09
2023-05-21T23:33:01.179Z,68.01
2023-05-21T23:35:28.789Z,67.75
2023-05-21T23:37:56.548Z,68.49
2023-05-21T23:40:24.124Z,67.70
2023-05-21T23:42:52.971Z,69.13
2023-05-21T23:45:20.685Z,68.43
2023-05-21T23:47:48.295Z,68.87
2023-05-21T23:50:15.969Z,70.05
2023-05-21T23:52:43.582Z,69.61
2023-05-21T23:55:14.532Z,68.94
2023-05-21T23:57:42.076Z,69.61
